Etusivu
METAR-TAF:

METAR-TAF

Lentoasemat :

Antwerpenin kansainvälinen lentoasema

Antwerpen, Belgia

Leveyspiiri: 51-12N, Pituuspiiri: 004-28E, korkeus merenpinnasta: 12 m

Tämänhetkinen sää

Tämä raportti tehtiin 44 minuuttia sitten, kello 18.50 UTC
Tuuli 5 kn pohjoisesta/koillisesta
Lämpötila 23°C
Kosteus 53%
Ilmanpaine 1023 hPa
Näkyvyys 10 km tai enemmän
ei pilviä alle 1500 m:ssä eikä cumulonimbus-pilviä

METAR: EBAW 231850Z 03005KT CAVOK 23/13 Q1023 NOSIG

Aika: 21:34 (19:34 UTC)

Sääennuste

Tämä raportti tehtiin 2 tuntia ja 24 minuuttia sitten, kello 17.10 UTC
Ennuste voimassa 23. päivästä klo 18 UTC - 24. päivään klo 03 UTC
Tuuli 4 kn idästä
Näkyvyys 10 km tai enemmän
ei pilviä alle 1500 m:ssä eikä cumulonimbus-pilviä

TAF: EBAW 231710Z 2318/2403 09004KT CAVOK

Säähavainnot ja -ennusteet yli 4000 lentoasemalta (METAR- ja TAF-raportit).

Käytössä olevat sääasemat on merkitty karttaan keltaisilla ja punaisilla pisteillä.

Aseta hiiri pisteen päälle nähdäksesi sääaseman nimen.

Klikkaa sitten nähdäksesi säähavainnot ja -ennusteet.

Kartan vaihtaminen: klikkaa mustalla rastilla varustettuja vihreitä pisteitä, niin voit zoomata sisään; viivalla varustettua vihreää pistettä, niin voit zoomata ulos tai vihreitä nuolia, niin pääset viereisille kartoille.


METAR-TAF: